Current Weather

Long Island Mac Arthur

New York, New York (KISP)

Report from: Saturday, June 22, 2024 4:56 AM EDT
Current time: Saturday, June 22, 2024 5:09 AM EDT

Nearby weather – Weather history – Daily summaries
Weather forecast

Temperature22.2°C (72.0°F)
Dew point20.6°C (69.1°F)
Winds 4 kts (2.1 m/s, 4.6 mph) Southwest (230°)
Visibility10 mi. (16.1 km)
Clouds Sky clear
Altimeter30.05 in.Hg (1018 mB)
Relative humidity91 %
Density altitude1,027 ft. (313 m)
Sea-level pressure101.7 kPa (1017 mB, 30.04 in.Hg)
Remarks Fully automated report
Automated weather observing station with precipitation discriminator
Pressure falling more slowly
Flight conditions Visual Meteorological Conditions
Raw dataKISP 220856Z AUTO 23004KT 10SM CLR 22/21 A3005 RMK AO2 SLP174 T02220206 56008
An error has occurred. This application may no longer respond until reloaded. Reload 🗙